createdAt,value
2018-09-08T00:02:58.005Z,5.53
2018-09-08T00:07:52.530Z,3.53
2018-09-08T00:12:47.655Z,5.33
2018-09-08T00:17:47.458Z,3.10
2018-09-08T00:22:47.168Z,6.00
2018-09-08T00:27:45.733Z,4.67
2018-09-08T00:32:40.436Z,4.77
2018-09-08T00:37:34.939Z,2.73
2018-09-08T00:42:29.417Z,3.90
2018-09-08T00:47:23.893Z,3.20
2018-09-08T00:52:18.338Z,4.00
2018-09-08T00:57:12.868Z,3.17
2018-09-08T01:02:07.370Z,5.77
2018-09-08T01:07:02.788Z,2.70
2018-09-08T01:11:57.241Z,3.40
2018-09-08T01:16:51.721Z,3.67
2018-09-08T01:21:46.324Z,4.43
2018-09-08T01:26:40.837Z,3.87
2018-09-08T01:31:35.556Z,4.03
2018-09-08T01:36:30.064Z,4.17
2018-09-08T01:41:24.564Z,5.20
2018-09-08T01:46:19.032Z,4.57
2018-09-08T01:51:13.940Z,3.00
2018-09-08T01:56:08.702Z,3.83
2018-09-08T02:01:03.218Z,3.90
2018-09-08T02:05:57.727Z,4.57
2018-09-08T02:10:52.218Z,7.87
2018-09-08T02:15:46.730Z,6.63
2018-09-08T02:20:41.340Z,6.23
2018-09-08T02:25:36.079Z,4.00
2018-09-08T02:30:30.585Z,6.57
2018-09-08T02:35:25.598Z,5.33
2018-09-08T02:40:20.086Z,5.60
2018-09-08T02:45:14.584Z,5.63
2018-09-08T02:50:35.521Z,3.67
2018-09-08T02:55:28.876Z,2.80
2018-09-08T03:00:21.760Z,3.40
2018-09-08T03:05:14.920Z,4.40
2018-09-08T03:10:07.922Z,5.30
2018-09-08T03:15:00.799Z,5.07
2018-09-08T03:19:53.766Z,5.63
2018-09-08T03:24:46.641Z,4.37
2018-09-08T03:29:39.564Z,5.60
2018-09-08T03:34:32.468Z,2.77
2018-09-08T03:39:25.324Z,4.03
2018-09-08T03:44:18.527Z,6.63
2018-09-08T03:49:11.381Z,4.37
2018-09-08T03:54:04.288Z,4.67
2018-09-08T03:58:57.167Z,4.23
2018-09-08T04:03:51.830Z,4.40
2018-09-08T04:08:46.426Z,7.67
2018-09-08T04:13:40.940Z,4.73
2018-09-08T04:18:35.422Z,9.70
2018-09-08T04:23:29.865Z,4.27
2018-09-08T04:28:24.438Z,4.57
2018-09-08T04:33:19.293Z,4.23
2018-09-08T04:38:13.902Z,5.20
2018-09-08T04:43:08.410Z,4.30
2018-09-08T04:48:03.267Z,4.13
2018-09-08T04:52:58.012Z,5.50
2018-09-08T04:57:53.127Z,4.43
2018-09-08T05:02:47.709Z,7.20
2018-09-08T05:07:42.761Z,5.77
2018-09-08T05:12:37.467Z,4.50
2018-09-08T05:17:31.924Z,5.97
2018-09-08T05:22:27.222Z,4.63
2018-09-08T05:27:23.250Z,4.17
2018-09-08T05:32:17.873Z,6.27
2018-09-08T05:37:12.360Z,4.57
2018-09-08T05:42:06.992Z,7.33
2018-09-08T05:47:02.242Z,8.17
2018-09-08T05:51:56.899Z,5.33
2018-09-08T05:56:51.424Z,4.20
2018-09-08T06:01:45.967Z,5.60
2018-09-08T06:06:40.424Z,5.33
2018-09-08T06:11:35.112Z,6.23
2018-09-08T06:16:29.658Z,6.23
2018-09-08T06:21:24.324Z,6.23
2018-09-08T06:26:18.793Z,9.63
2018-09-08T06:31:13.302Z,6.37
2018-09-08T06:36:08.539Z,4.83
2018-09-08T06:41:03.028Z,5.43
2018-09-08T06:45:57.512Z,7.70
2018-09-08T06:50:51.964Z,5.43
2018-09-08T06:55:46.426Z,2.70
2018-09-08T07:00:41.463Z,4.10
2018-09-08T07:05:38.603Z,4.40
2018-09-08T07:10:33.407Z,5.13
2018-09-08T07:15:28.691Z,5.23
2018-09-08T07:20:23.539Z,4.67
2018-09-08T07:25:18.729Z,4.43
2018-09-08T07:30:13.956Z,4.47
2018-09-08T07:35:08.842Z,6.30
2018-09-08T07:40:03.876Z,3.30
2018-09-08T07:44:59.331Z,4.60
2018-09-08T07:49:54.301Z,4.63
2018-09-08T07:54:49.315Z,4.50
2018-09-08T07:59:44.608Z,2.87
2018-09-08T08:04:39.464Z,4.03
2018-09-08T08:09:34.676Z,7.20
2018-09-08T08:14:29.665Z,4.27
2018-09-08T08:19:25.788Z,5.10
2018-09-08T08:24:21.974Z,4.60
2018-09-08T08:29:17.192Z,3.07
2018-09-08T08:34:12.193Z,3.50
2018-09-08T08:39:09.264Z,3.63
2018-09-08T08:44:04.380Z,6.83
2018-09-08T08:48:59.233Z,3.80
2018-09-08T08:54:10.873Z,6.33
2018-09-08T08:59:05.634Z,3.40
2018-09-08T09:04:00.565Z,4.13
2018-09-08T09:08:55.385Z,3.43
2018-09-08T09:13:50.195Z,3.60
2018-09-08T09:19:02.308Z,2.70
2018-09-08T09:25:07.008Z,3.13
2018-09-08T09:30:03.126Z,4.93
2018-09-08T09:34:58.458Z,3.93
2018-09-08T09:39:54.014Z,4.93
2018-09-08T09:44:48.773Z,4.40
2018-09-08T09:49:43.600Z,3.87
2018-09-08T09:54:38.468Z,3.23
2018-09-08T09:59:33.265Z,2.90
2018-09-08T10:04:28.198Z,5.87
2018-09-08T10:09:23.151Z,4.20
2018-09-08T10:14:18.806Z,5.10
2018-09-08T10:19:14.126Z,4.17
2018-09-08T10:24:08.673Z,6.70
2018-09-08T10:29:03.195Z,3.80
2018-09-08T10:33:57.825Z,3.20
2018-09-08T10:38:52.880Z,2.40
2018-09-08T10:43:47.552Z,5.40
2018-09-08T10:48:42.178Z,4.57
2018-09-08T10:53:37.559Z,2.83
2018-09-08T10:58:32.277Z,3.57
2018-09-08T11:03:26.799Z,2.47
2018-09-08T11:08:21.409Z,3.30
2018-09-08T11:13:15.922Z,4.07
2018-09-08T11:18:10.466Z,5.17
2018-09-08T11:23:05.129Z,7.50
2018-09-08T11:27:59.599Z,4.57
2018-09-08T11:32:54.099Z,3.80
2018-09-08T11:37:48.585Z,6.90
2018-09-08T11:42:43.114Z,3.13
2018-09-08T11:47:37.632Z,2.33
2018-09-08T11:52:32.388Z,4.85
2018-09-08T11:57:26.867Z,3.67
2018-09-08T12:02:21.298Z,2.50
2018-09-08T12:07:16.132Z,3.50
2018-09-08T12:12:10.791Z,3.87
2018-09-08T12:17:05.324Z,2.60
2018-09-08T12:21:59.997Z,2.83
2018-09-08T12:26:54.663Z,1.97
2018-09-08T12:31:49.135Z,7.37
2018-09-08T12:36:42.809Z,2.67
2018-09-08T12:41:37.381Z,3.90
2018-09-08T12:46:32.004Z,5.77
2018-09-08T12:51:26.756Z,3.93
2018-09-08T12:56:21.837Z,2.03
2018-09-08T13:01:16.460Z,1.77
2018-09-08T13:06:11.241Z,2.63
2018-09-08T13:11:05.970Z,3.40
2018-09-08T13:16:00.417Z,4.33
2018-09-08T13:20:54.888Z,2.90
2018-09-08T13:25:49.437Z,2.90
2018-09-08T13:30:44.285Z,4.97
2018-09-08T13:35:38.744Z,2.47
2018-09-08T13:40:33.202Z,5.60
2018-09-08T13:45:27.759Z,3.87
2018-09-08T13:50:22.414Z,3.77
2018-09-08T13:55:16.888Z,2.50
2018-09-08T14:00:11.332Z,3.23
2018-09-08T14:05:06.145Z,3.53
2018-09-08T14:10:00.919Z,3.87
2018-09-08T14:14:55.509Z,4.63
2018-09-08T14:19:50.001Z,4.07
2018-09-08T14:24:44.477Z,2.57
2018-09-08T14:29:39.194Z,3.13
2018-09-08T14:34:33.987Z,3.83
2018-09-08T14:39:28.702Z,3.10
2018-09-08T14:44:23.415Z,2.10
2018-09-08T14:49:18.007Z,5.23
2018-09-08T14:54:12.582Z,2.70
2018-09-08T14:59:07.238Z,4.13
2018-09-08T15:04:02.024Z,3.97
2018-09-08T15:08:56.718Z,2.00
2018-09-08T15:13:51.542Z,5.80
2018-09-08T15:18:46.021Z,4.53
2018-09-08T15:23:40.645Z,3.57
2018-09-08T15:28:35.205Z,4.20
2018-09-08T15:33:29.702Z,3.43
2018-09-08T15:38:24.446Z,2.90
2018-09-08T15:43:19.155Z,4.60
2018-09-08T15:48:14.063Z,2.20
2018-09-08T15:53:08.890Z,4.67
2018-09-08T15:58:03.459Z,2.93
2018-09-08T16:02:58.503Z,3.50
2018-09-08T16:07:53.195Z,2.07
2018-09-08T16:12:47.645Z,3.13
2018-09-08T16:17:42.391Z,3.70
2018-09-08T16:22:39.148Z,4.63
2018-09-08T16:27:33.809Z,6.30
2018-09-08T16:32:28.805Z,4.40
2018-09-08T16:37:23.493Z,3.43
2018-09-08T16:42:19.505Z,4.73
2018-09-08T16:47:14.048Z,6.20
2018-09-08T16:52:09.319Z,3.93
2018-09-08T16:57:03.894Z,3.73
2018-09-08T17:01:58.824Z,2.20
2018-09-08T17:06:53.615Z,4.33
2018-09-08T17:11:48.423Z,3.63
2018-09-08T17:16:42.915Z,4.27
2018-09-08T17:21:37.530Z,4.87
2018-09-08T17:26:32.056Z,4.27
2018-09-08T17:31:26.575Z,3.30
2018-09-08T17:36:21.037Z,3.23
2018-09-08T17:41:15.529Z,3.00
2018-09-08T17:46:10.020Z,4.77
2018-09-08T17:51:04.468Z,3.97
2018-09-08T17:55:59.137Z,4.73
2018-09-08T18:00:53.715Z,3.40
2018-09-08T18:05:48.211Z,6.23
2018-09-08T18:10:42.842Z,3.53
2018-09-08T18:15:37.366Z,7.73
2018-09-08T18:20:31.855Z,8.47
2018-09-08T18:25:26.313Z,4.23
2018-09-08T18:30:20.922Z,5.87
2018-09-08T18:35:15.618Z,3.33
2018-09-08T18:40:10.104Z,4.77
2018-09-08T18:45:04.629Z,5.60
2018-09-08T18:49:59.277Z,5.57
2018-09-08T18:54:53.824Z,5.17
2018-09-08T18:59:48.473Z,7.33
2018-09-08T19:04:43.162Z,5.03
2018-09-08T19:09:37.742Z,5.27
2018-09-08T19:14:37.722Z,6.33
2018-09-08T19:19:32.456Z,13.17
2018-09-08T19:24:32.303Z,23.53
2018-09-08T19:29:32.133Z,8.87
2018-09-08T19:34:26.621Z,6.83
2018-09-08T19:39:21.278Z,8.30
2018-09-08T19:44:15.826Z,7.90
2018-09-08T19:49:10.419Z,13.00
2018-09-08T19:54:05.110Z,16.80
2018-09-08T19:59:00.203Z,11.80
2018-09-08T20:03:55.232Z,11.37
2018-09-08T20:08:49.693Z,8.03
2018-09-08T20:13:46.041Z,7.93
2018-09-08T20:18:40.692Z,6.83
2018-09-08T20:23:35.146Z,8.37
2018-09-08T20:28:29.610Z,5.67
2018-09-08T20:33:24.074Z,6.20
2018-09-08T20:38:18.576Z,6.10
2018-09-08T20:43:13.060Z,7.77
2018-09-08T20:48:07.622Z,8.37
2018-09-08T20:53:02.305Z,8.40
2018-09-08T20:57:56.790Z,11.13
2018-09-08T21:02:51.231Z,10.30
2018-09-08T21:07:45.768Z,9.87
2018-09-08T21:12:40.413Z,7.83
2018-09-08T21:17:35.420Z,11.23
2018-09-08T21:22:29.900Z,7.17
2018-09-08T21:27:24.367Z,6.27
2018-09-08T21:32:18.917Z,6.90
2018-09-08T21:37:13.442Z,5.03
2018-09-08T21:42:07.978Z,4.63
2018-09-08T21:47:05.910Z,5.40
2018-09-08T21:51:57.030Z,6.57
2018-09-08T21:56:51.468Z,6.40
2018-09-08T22:01:46.006Z,9.43
2018-09-08T22:06:40.503Z,6.57
2018-09-08T22:11:35.052Z,5.77
2018-09-08T22:16:29.551Z,6.87
2018-09-08T22:21:24.298Z,8.27
2018-09-08T22:26:19.125Z,7.73
2018-09-08T22:31:13.580Z,5.60
2018-09-08T22:36:08.258Z,6.73
2018-09-08T22:41:02.821Z,6.30
2018-09-08T22:45:58.509Z,7.03
2018-09-08T22:50:53.392Z,6.10
2018-09-08T22:55:48.462Z,10.80
2018-09-08T23:00:43.310Z,9.10
2018-09-08T23:05:37.954Z,7.97
2018-09-08T23:10:33.373Z,9.33
2018-09-08T23:15:28.122Z,7.70
2018-09-08T23:20:22.900Z,8.03
2018-09-08T23:25:17.657Z,6.43
2018-09-08T23:30:12.450Z,5.43
2018-09-08T23:35:08.605Z,5.90
2018-09-08T23:40:03.997Z,10.83
2018-09-08T23:44:58.555Z,8.73
2018-09-08T23:49:53.368Z,7.23
2018-09-08T23:54:47.811Z,7.33
2018-09-08T23:59:42.265Z,8.23
